Time;durP1;ratioP1;P1;durP2;ratioP2;P2;SDS_P1;SDS_P2;PMS_P1;PMS_P2;Temp;Humidity;BMP_temperature;BMP_pressure;BME280_temperature;BME280_humidity;BME280_pressure;Samples;Min_cycle;Max_cycle;Signal;HPM_P1;HPM_P2
2022/09/12 00:01:25;;;;;;;8.82;1.90;;;11.50;99.90;;;;;;5052744;28;20076;-46
2022/09/12 00:03:57;;;;;;;4.35;1.88;;;11.50;99.90;;;;;;5065251;28;20037;-46
2022/09/12 00:06:27;;;;;;;6.45;2.10;;;11.50;99.90;;;;;;5071526;28;20072;-47
2022/09/12 00:09:00;;;;;;;4.30;2.10;;;11.50;99.90;;;;;;5060946;28;20040;-47
2022/09/12 00:11:28;;;;;;;4.10;2.17;;;11.60;99.90;;;;;;5071306;28;20119;-46
2022/09/12 00:13:57;;;;;;;7.25;2.08;;;11.60;99.90;;;;;;5071118;28;20095;-46
2022/09/12 00:16:26;;;;;;;2.45;1.85;;;11.60;99.90;;;;;;5072470;28;20075;-46
2022/09/12 00:18:53;;;;;;;2.00;1.70;;;11.60;99.90;;;;;;5064239;28;20044;-46
2022/09/12 00:21:21;;;;;;;2.83;1.65;;;11.50;99.90;;;;;;5063829;28;20120;-46
2022/09/12 00:23:48;;;;;;;1.80;1.42;;;11.50;99.90;;;;;;5051183;28;20120;-47
2022/09/12 00:26:16;;;;;;;;;;;11.40;99.90;;;;;;5070152;28;20120;-46
2022/09/12 00:28:43;;;;;;;3.28;1.52;;;11.40;99.90;;;;;;5053729;28;19960;-46
2022/09/12 00:31:13;;;;;;;2.60;1.77;;;11.50;99.90;;;;;;5051561;28;20072;-48
2022/09/12 00:33:41;;;;;;;5.43;1.95;;;11.40;99.90;;;;;;5051247;28;20484;-46
2022/09/12 00:36:10;;;;;;;7.18;1.80;;;11.40;99.90;;;;;;5055203;28;20072;-46
2022/09/12 00:38:40;;;;;;;1.70;1.25;;;11.40;99.90;;;;;;5064330;28;20415;-46
2022/09/12 00:41:15;;;;;;;5.97;1.67;;;11.30;99.90;;;;;;5071700;28;20051;-46
2022/09/12 00:43:45;;;;;;;4.80;1.70;;;11.20;99.90;;;;;;5071539;28;20454;-46
2022/09/12 00:46:12;;;;;;;2.03;1.83;;;11.20;99.90;;;;;;5070286;28;20119;-46
2022/09/12 00:48:44;;;;;;;3.80;1.65;;;11.20;99.90;;;;;;5064138;28;20144;-46
2022/09/12 00:51:12;;;;;;;3.00;1.50;;;11.20;99.90;;;;;;5071686;28;20052;-46
2022/09/12 00:53:42;;;;;;;3.20;1.80;;;11.30;99.90;;;;;;5053210;28;20120;-46
2022/09/12 00:56:11;;;;;;;3.22;1.52;;;11.20;99.90;;;;;;5051801;28;20117;-47
2022/09/12 00:58:53;;;;;;;3.63;1.80;;;11.30;99.90;;;;;;5050719;28;20128;-46
2022/09/12 01:01:20;;;;;;;2.97;1.55;;;11.30;99.90;;;;;;5050945;28;20041;-46
2022/09/12 01:03:47;;;;;;;3.55;1.83;;;11.20;99.90;;;;;;5064701;28;20051;-47
2022/09/12 01:06:35;;;;;;;4.30;2.00;;;11.30;99.90;;;;;;5070441;28;20076;-47
2022/09/12 01:09:03;;;;;;;;;;;11.20;99.90;;;;;;5050811;28;20128;-46
2022/09/12 01:11:34;;;;;;;2.63;1.70;;;11.20;99.90;;;;;;5057254;28;20368;-46
2022/09/12 01:14:01;;;;;;;3.25;1.85;;;11.20;99.90;;;;;;5066165;28;20131;-47
2022/09/12 01:16:28;;;;;;;4.65;1.80;;;11.20;99.90;;;;;;5070157;28;20083;-47
2022/09/12 01:19:30;;;;;;;3.90;2.00;;;11.20;99.90;;;;;;5069137;28;20060;-46
2022/09/12 01:22:12;;;;;;;2.92;1.85;;;11.20;99.90;;;;;;5065313;28;20044;-46
2022/09/12 01:24:54;;;;;;;5.13;1.70;;;11.20;99.90;;;;;;5070598;28;20547;-46
2022/09/12 01:27:58;;;;;;;2.53;1.90;;;11.20;99.90;;;;;;5058629;28;20075;-46
2022/09/12 01:30:42;;;;;;;2.22;1.80;;;11.20;99.90;;;;;;5069854;28;20072;-48
2022/09/12 01:33:37;;;;;;;2.25;1.70;;;11.10;99.90;;;;;;5070985;28;20549;-46
2022/09/12 01:36:16;;;;;;;5.50;1.85;;;11.10;99.90;;;;;;5057919;28;20041;-46
2022/09/12 01:38:49;;;;;;;2.60;1.52;;;11.20;99.90;;;;;;5064285;28;20079;-47
2022/09/12 01:41:24;;;;;;;6.32;1.73;;;11.10;99.90;;;;;;5069131;28;20068;-48
2022/09/12 01:43:57;;;;;;;3.78;1.55;;;11.10;99.90;;;;;;5057525;28;20048;-47
2022/09/12 01:46:38;;;;;;;2.78;1.70;;;11.10;99.90;;;;;;5078595;28;20083;-46
2022/09/12 01:49:15;;;;;;;2.63;1.20;;;11.10;99.90;;;;;;5072132;28;20486;-47
2022/09/12 01:51:47;;;;;;;4.00;1.65;;;11.10;99.90;;;;;;5057934;28;20040;-46
2022/09/12 01:54:26;;;;;;;3.65;1.92;;;11.10;99.90;;;;;;5054163;28;20080;-47
2022/09/12 01:56:56;;;;;;;2.17;1.50;;;11.10;99.90;;;;;;5055086;28;20468;-46
2022/09/12 01:59:38;;;;;;;2.78;1.80;;;11.10;99.90;;;;;;5074122;28;20065;-46
2022/09/12 02:02:15;;;;;;;3.15;1.20;;;11.20;99.90;;;;;;5074864;28;20497;-46
2022/09/12 02:08:32;;;;;;;2.22;1.58;;;11.10;99.90;;;;;;5070564;28;20037;-45
2022/09/12 02:11:07;;;;;;;3.45;1.60;;;11.10;99.90;;;;;;5081875;28;20123;-45
2022/09/12 02:13:40;;;;;;;6.47;1.90;;;11.00;99.90;;;;;;5055632;28;20064;-45
2022/09/12 02:16:20;;;;;;;3.72;1.40;;;11.00;99.90;;;;;;5074620;28;20330;-45
2022/09/12 02:18:53;;;;;;;3.78;1.20;;;11.00;99.90;;;;;;5058545;28;20037;-45
2022/09/12 02:21:23;;;;;;;2.85;1.63;;;11.00;99.90;;;;;;5052047;28;20044;-45
2022/09/12 02:24:01;;;;;;;2.20;1.73;;;11.00;99.90;;;;;;5049813;28;20523;-45
2022/09/12 02:26:34;;;;;;;4.95;1.90;;;11.00;99.90;;;;;;5053088;28;20121;-45
2022/09/12 02:29:02;;;;;;;2.70;1.80;;;11.10;99.90;;;;;;5052185;28;20140;-45
2022/09/12 02:31:44;;;;;;;2.08;1.83;;;11.10;99.90;;;;;;5062635;28;20120;-45
2022/09/12 02:34:21;;;;;;;6.25;2.13;;;11.00;99.90;;;;;;5052755;28;20183;-44
2022/09/12 02:36:56;;;;;;;2.90;1.50;;;11.10;99.90;;;;;;5053328;28;20119;-45
2022/09/12 02:39:23;;;;;;;2.60;1.80;;;11.00;99.90;;;;;;5053872;28;20120;-45
2022/09/12 02:41:51;;;;;;;2.78;1.73;;;11.00;99.90;;;;;;5053225;28;20037;-44
2022/09/12 02:44:19;;;;;;;3.28;1.63;;;11.00;99.90;;;;;;5052029;28;20224;-45
2022/09/12 02:46:50;;;;;;;3.10;1.40;;;11.00;99.90;;;;;;5053936;28;20108;-45
2022/09/12 02:49:18;;;;;;;3.40;1.58;;;11.00;99.90;;;;;;5053191;28;20080;-45
2022/09/12 02:51:46;;;;;;;2.00;1.25;;;11.00;99.90;;;;;;5053710;28;20053;-44
2022/09/12 02:54:15;;;;;;;2.45;1.80;;;11.00;99.90;;;;;;5062221;28;20127;-44
2022/09/12 02:56:44;;;;;;;3.55;1.55;;;11.00;99.90;;;;;;5074085;28;20449;-45
2022/09/12 02:59:17;;;;;;;2.28;1.35;;;11.00;99.90;;;;;;5073729;28;20076;-44
2022/09/12 03:01:54;;;;;;;2.72;1.17;;;11.00;99.90;;;;;;5042889;28;20505;-45
2022/09/12 03:04:47;;;;;;;4.28;1.48;;;11.00;99.90;;;;;;5052856;28;20045;-44
2022/09/12 03:07:17;;;;;;;3.38;1.63;;;11.00;99.90;;;;;;5053834;28;20045;-45
2022/09/12 03:09:51;;;;;;;3.42;1.65;;;11.00;99.90;;;;;;5050254;28;20049;-45
2022/09/12 03:12:45;;;;;;;4.10;1.45;;;11.00;99.90;;;;;;5051747;28;20425;-44
2022/09/12 03:15:27;;;;;;;3.00;1.92;;;11.00;99.90;;;;;;5045343;28;20493;-45
2022/09/12 03:17:59;;;;;;;3.67;1.83;;;10.90;99.90;;;;;;5051980;28;20519;-44
2022/09/12 03:20:44;;;;;;;3.50;2.30;;;10.90;99.90;;;;;;5050301;28;20075;-45
2022/09/12 03:23:32;;;;;;;2.67;1.98;;;11.00;99.90;;;;;;5033105;28;20140;-45
2022/09/12 03:26:06;;;;;;;4.75;2.53;;;11.10;99.90;;;;;;5053766;28;20116;-45
2022/09/12 03:28:34;;;;;;;4.80;2.08;;;11.10;99.90;;;;;;5045479;28;20128;-45
2022/09/12 03:31:15;;;;;;;5.15;1.77;;;11.10;99.90;;;;;;5051863;28;20136;-45
2022/09/12 03:33:42;;;;;;;2.65;2.08;;;11.10;99.90;;;;;;5046100;28;20469;-45
2022/09/12 03:36:18;;;;;;;;;;;11.00;99.90;;;;;;5050132;28;20120;-45
2022/09/12 03:38:45;;;;;;;4.45;1.85;;;11.00;99.90;;;;;;5051547;28;20027;-44
2022/09/12 03:41:12;;;;;;;7.13;1.90;;;11.00;99.90;;;;;;5050032;28;20043;-45
2022/09/12 03:43:39;;;;;;;4.75;2.05;;;10.90;99.90;;;;;;5052882;28;20128;-45
2022/09/12 03:46:05;;;;;;;5.10;2.83;;;10.90;99.90;;;;;;5051317;28;20045;-44
2022/09/12 03:48:32;;;;;;;2.85;1.80;;;10.90;99.90;;;;;;5049623;28;20049;-44
2022/09/12 03:51:01;;;;;;;2.83;2.22;;;10.80;99.90;;;;;;5049342;28;20123;-45
2022/09/12 03:53:29;;;;;;;5.60;2.30;;;10.80;99.90;;;;;;5051113;28;20065;-45
2022/09/12 03:55:56;;;;;;;3.10;1.98;;;10.70;99.90;;;;;;5044480;28;20117;-45
2022/09/12 03:58:23;;;;;;;;;;;10.70;99.90;;;;;;5042985;28;20405;-45
2022/09/12 04:00:50;;;;;;;4.55;1.92;;;10.60;99.90;;;;;;5042237;28;19968;-45
2022/09/12 04:03:18;;;;;;;6.85;2.22;;;10.70;99.90;;;;;;5050949;28;20060;-45
2022/09/12 04:05:45;;;;;;;3.58;2.35;;;10.70;99.90;;;;;;5047914;28;20124;-45
2022/09/12 04:08:13;;;;;;;6.20;2.47;;;10.60;99.90;;;;;;5046366;28;20073;-45
2022/09/12 04:10:40;;;;;;;3.05;2.10;;;10.60;99.90;;;;;;5053409;28;20069;-45
2022/09/12 04:13:07;;;;;;;5.55;2.28;;;10.60;99.90;;;;;;5049383;28;20127;-44
2022/09/12 04:15:34;;;;;;;4.85;2.03;;;10.60;99.90;;;;;;5048711;28;20451;-45
2022/09/12 04:18:00;;;;;;;5.60;2.47;;;10.50;99.90;;;;;;5051194;28;20115;-45
2022/09/12 04:20:31;;;;;;;4.35;2.55;;;10.50;99.90;;;;;;5032328;28;20314;-45
2022/09/12 04:22:58;;;;;;;4.22;2.72;;;10.40;99.90;;;;;;5032232;28;20088;-45
2022/09/12 04:25:26;;;;;;;6.90;3.28;;;10.50;99.90;;;;;;5034288;28;20084;-45
2022/09/12 04:27:52;;;;;;;5.45;3.05;;;10.50;99.90;;;;;;5051140;28;20128;-45
2022/09/12 04:30:19;;;;;;;4.75;2.90;;;10.50;99.90;;;;;;5050278;28;20120;-45
2022/09/12 04:32:46;;;;;;;3.67;2.65;;;10.50;99.90;;;;;;5051836;28;20103;-45
2022/09/12 04:35:12;;;;;;;3.77;2.70;;;10.50;99.90;;;;;;5050793;28;20124;-45
2022/09/12 04:37:39;;;;;;;5.78;2.85;;;10.40;99.90;;;;;;5033561;28;20324;-45
2022/09/12 04:40:06;;;;;;;2.95;1.95;;;10.40;99.90;;;;;;5067104;28;20140;-45
2022/09/12 04:42:33;;;;;;;3.33;2.47;;;10.40;99.90;;;;;;5071947;28;20040;-45
2022/09/12 04:45:00;;;;;;;4.82;2.65;;;10.30;99.90;;;;;;5054051;28;20087;-45
2022/09/12 04:47:27;;;;;;;7.68;2.38;;;10.30;99.90;;;;;;5041484;28;20067;-45
2022/09/12 04:49:54;;;;;;;4.20;2.90;;;10.40;99.90;;;;;;5045328;28;20540;-45
2022/09/12 04:52:21;;;;;;;4.05;2.35;;;10.40;99.90;;;;;;5047033;28;20084;-45
2022/09/12 04:54:47;;;;;;;2.88;2.10;;;10.30;99.90;;;;;;5039338;28;20068;-45
2022/09/12 04:57:14;;;;;;;5.93;2.33;;;10.30;99.90;;;;;;5041710;28;20049;-45
2022/09/12 04:59:41;;;;;;;3.05;2.17;;;10.30;99.90;;;;;;5048550;28;20076;-46
2022/09/12 05:02:08;;;;;;;4.80;2.55;;;10.30;99.90;;;;;;5044234;28;20129;-45
2022/09/12 05:04:35;;;;;;;5.63;3.08;;;10.30;99.90;;;;;;5043483;28;20452;-45
2022/09/12 05:07:02;;;;;;;3.60;2.97;;;10.30;99.90;;;;;;5040348;28;20116;-45
2022/09/12 05:09:28;;;;;;;6.20;2.33;;;10.30;99.90;;;;;;5044399;28;20441;-45
2022/09/12 05:11:56;;;;;;;4.88;2.35;;;10.30;99.90;;;;;;5048068;28;20072;-46
2022/09/12 05:14:31;;;;;;;3.53;2.00;;;10.20;99.90;;;;;;5051006;28;20037;-45
2022/09/12 05:17:00;;;;;;;3.83;2.28;;;10.20;99.90;;;;;;5050785;28;20060;-45
2022/09/12 05:19:28;;;;;;;5.03;2.00;;;10.20;99.90;;;;;;5045884;28;20045;-45
2022/09/12 05:21:55;;;;;;;4.25;1.98;;;10.20;99.90;;;;;;5045468;28;20125;-45
2022/09/12 05:24:23;;;;;;;3.15;1.77;;;10.10;99.90;;;;;;5049161;28;20053;-45
2022/09/12 05:26:50;;;;;;;4.47;2.15;;;10.10;99.90;;;;;;5043397;28;20042;-45
2022/09/12 05:29:17;;;;;;;4.63;2.60;;;10.10;99.90;;;;;;5038520;28;20047;-45
2022/09/12 05:31:44;;;;;;;2.88;2.03;;;10.10;99.90;;;;;;5046549;28;20072;-45
2022/09/12 05:34:11;;;;;;;6.90;2.75;;;10.10;99.90;;;;;;5040560;28;20091;-45
2022/09/12 05:36:38;;;;;;;4.30;2.60;;;10.10;99.90;;;;;;5041399;28;20045;-45
2022/09/12 05:39:05;;;;;;;5.70;2.75;;;10.20;99.90;;;;;;5047256;28;20110;-46
2022/09/12 05:41:33;;;;;;;10.65;2.80;;;10.20;99.90;;;;;;5035134;28;20060;-44
2022/09/12 05:44:02;;;;;;;4.30;2.65;;;10.20;99.90;;;;;;5046716;28;20139;-45
2022/09/12 05:46:40;;;;;;;8.07;3.05;;;10.20;99.90;;;;;;5045590;28;20490;-44
2022/09/12 05:49:08;;;;;;;;;;;10.20;99.90;;;;;;5050687;28;20072;-45
2022/09/12 05:51:38;;;;;;;7.60;3.00;;;10.30;99.90;;;;;;5042595;28;19967;-44
2022/09/12 05:54:06;;;;;;;4.70;3.25;;;10.30;99.90;;;;;;5050449;28;20447;-45
2022/09/12 05:56:41;;;;;;;6.22;2.88;;;10.30;99.90;;;;;;5048961;28;20102;-45
2022/09/12 05:59:13;;;;;;;6.50;3.20;;;10.30;99.90;;;;;;5051093;28;20102;-45
2022/09/12 06:01:41;;;;;;;4.60;3.10;;;10.40;99.90;;;;;;5043804;28;20041;-45
2022/09/12 06:04:08;;;;;;;4.93;3.15;;;10.40;99.90;;;;;;5049449;28;20037;-44
2022/09/12 06:06:42;;;;;;;5.20;3.22;;;10.40;99.90;;;;;;5050825;28;20095;-45
2022/09/12 06:09:09;;;;;;;4.57;2.95;;;10.40;99.90;;;;;;5050630;28;20079;-45
2022/09/12 06:11:39;;;;;;;4.28;2.70;;;10.40;99.90;;;;;;5032925;28;20550;-44
2022/09/12 06:14:08;;;;;;;5.53;2.72;;;10.40;99.90;;;;;;5047527;28;20132;-44
2022/09/12 06:16:36;;;;;;;4.47;2.78;;;10.40;99.90;;;;;;5050608;28;20469;-45
2022/09/12 06:19:26;;;;;;;4.85;2.70;;;10.50;99.90;;;;;;5050689;28;20049;-45
2022/09/12 06:21:53;;;;;;;6.10;3.00;;;10.50;99.90;;;;;;5045354;28;20405;-44
2022/09/12 06:24:20;;;;;;;9.77;2.72;;;10.60;99.90;;;;;;5050387;28;20115;-44
2022/09/12 06:26:48;;;;;;;5.15;2.83;;;10.70;99.90;;;;;;5050333;28;20490;-44
2022/09/12 06:29:15;;;;;;;6.22;3.13;;;10.80;99.90;;;;;;5047655;28;20123;-44
2022/09/12 06:31:42;;;;;;;5.88;3.83;;;10.90;99.90;;;;;;5050497;28;20040;-44
2022/09/12 06:34:12;;;;;;;;;;;11.00;99.90;;;;;;5032347;28;20087;-45
2022/09/12 06:36:42;;;;;;;8.43;2.72;;;11.20;99.90;;;;;;5049467;28;20439;-45
2022/09/12 06:39:12;;;;;;;7.85;2.80;;;11.40;99.90;;;;;;5047751;28;20493;-46
2022/09/12 06:41:39;;;;;;;4.85;2.90;;;11.50;99.90;;;;;;5054430;28;20457;-45
2022/09/12 06:44:13;;;;;;;8.65;3.28;;;11.70;99.90;;;;;;5050168;28;20463;-46
2022/09/12 06:46:40;;;;;;;4.03;2.90;;;11.80;99.90;;;;;;5073920;28;20095;-45
2022/09/12 06:49:07;;;;;;;5.60;2.75;;;12.00;99.90;;;;;;5073660;28;20055;-45
2022/09/12 06:51:37;;;;;;;6.35;3.42;;;12.10;99.90;;;;;;5068724;28;20069;-44
2022/09/12 06:54:04;;;;;;;7.60;3.75;;;12.20;99.90;;;;;;5053787;28;20056;-45
2022/09/12 06:56:31;;;;;;;4.95;3.30;;;12.20;99.90;;;;;;5051108;28;20135;-45
2022/09/12 06:58:58;;;;;;;6.05;3.58;;;12.30;99.90;;;;;;5048003;28;20068;-45
2022/09/12 07:01:26;;;;;;;;;;;12.50;99.90;;;;;;5053737;28;20098;-44
2022/09/12 07:03:56;;;;;;;6.23;3.17;;;12.50;99.90;;;;;;5052305;28;20035;-46
2022/09/12 07:06:28;;;;;;;5.60;2.40;;;12.70;99.90;;;;;;5052495;28;20398;-45
2022/09/12 07:08:57;;;;;;;6.05;3.05;;;12.70;99.90;;;;;;5053799;28;20091;-45
2022/09/12 07:11:27;;;;;;;5.15;2.35;;;12.80;99.90;;;;;;5052764;28;20134;-45
2022/09/12 07:13:55;;;;;;;5.65;2.38;;;12.90;99.90;;;;;;5051803;28;20148;-44
2022/09/12 07:16:22;;;;;;;5.38;2.58;;;13.00;99.90;;;;;;5053452;28;20179;-46
2022/09/12 07:18:55;;;;;;;4.82;2.65;;;13.00;99.90;;;;;;5044261;28;20556;-45
2022/09/12 07:21:21;;;;;;;3.78;3.00;;;13.10;99.90;;;;;;5053209;28;20120;-45
2022/09/12 07:23:50;;;;;;;4.13;3.00;;;13.20;99.90;;;;;;5052346;28;20460;-45
2022/09/12 07:26:17;;;;;;;3.33;2.58;;;13.40;99.90;;;;;;5053023;28;20041;-45
2022/09/12 07:28:44;;;;;;;3.75;2.42;;;13.50;99.90;;;;;;5053222;28;20112;-46
2022/09/12 07:31:16;;;;;;;3.10;2.38;;;13.50;99.90;;;;;;5053774;28;20083;-45
2022/09/12 07:33:43;;;;;;;2.92;2.45;;;13.70;99.90;;;;;;5047032;28;20460;-45
2022/09/12 07:36:12;;;;;;;5.32;2.60;;;13.70;99.90;;;;;;5050561;28;20115;-45
2022/09/12 07:38:40;;;;;;;3.63;2.33;;;13.80;99.90;;;;;;5052101;28;20065;-45
2022/09/12 07:41:13;;;;;;;;;;;13.80;99.90;;;;;;5053402;28;20128;-45
2022/09/12 07:43:43;;;;;;;4.90;2.25;;;13.90;99.90;;;;;;5051757;28;20007;-45
2022/09/12 07:46:10;;;;;;;3.45;2.45;;;14.00;99.90;;;;;;5052277;28;20123;-45
2022/09/12 07:48:38;;;;;;;3.55;2.15;;;14.00;99.90;;;;;;5052979;28;20041;-45
2022/09/12 07:51:08;;;;;;;5.53;2.35;;;14.20;99.90;;;;;;5051089;28;20124;-45
2022/09/12 07:53:40;;;;;;;3.22;1.98;;;14.30;99.90;;;;;;5052163;28;20083;-45
2022/09/12 07:56:09;;;;;;;2.90;1.88;;;14.40;99.90;;;;;;5048068;28;20136;-45
2022/09/12 07:58:39;;;;;;;5.90;2.05;;;14.50;99.90;;;;;;5052818;28;20041;-45
2022/09/12 08:01:17;;;;;;;3.33;2.05;;;14.60;99.90;;;;;;5050991;28;20124;-45
2022/09/12 08:03:46;;;;;;;2.08;1.60;;;14.70;99.90;;;;;;5051975;28;20044;-45
2022/09/12 08:06:54;;;;;;;4.38;1.83;;;14.70;99.90;;;;;;5080919;23;20573;-46
2022/09/12 08:13:01;;;;;;;5.70;1.85;;;14.90;99.90;;;;;;5046709;28;20040;-46
2022/09/12 08:15:29;;;;;;;3.97;1.60;;;15.00;99.90;;;;;;5079104;28;20483;-46
2022/09/12 08:17:56;;;;;;;2.88;1.60;;;15.10;99.90;;;;;;5087974;28;20075;-46
2022/09/12 08:20:23;;;;;;;2.00;0.93;;;15.30;99.90;;;;;;5108214;28;20071;-46
2022/09/12 08:22:54;;;;;;;2.10;1.38;;;15.40;99.90;;;;;;5090958;28;20044;-46
2022/09/12 08:25:20;;;;;;;1.60;1.10;;;15.70;99.90;;;;;;5090836;28;20127;-50
2022/09/12 08:27:47;;;;;;;4.80;1.55;;;15.70;99.90;;;;;;5082819;28;20123;-47
2022/09/12 08:30:14;;;;;;;0.80;0.80;;;15.80;99.90;;;;;;5110259;28;20123;-46
2022/09/12 08:32:40;;;;;;;1.40;1.10;;;15.90;99.90;;;;;;5107866;28;20490;-46
2022/09/12 08:35:07;;;;;;;1.85;1.00;;;16.00;99.90;;;;;;5074807;28;20127;-47
2022/09/12 08:37:34;;;;;;;3.30;1.05;;;16.10;99.90;;;;;;5071126;28;20071;-47
2022/09/12 08:40:01;;;;;;;2.83;1.45;;;16.20;99.90;;;;;;5101165;28;20067;-47
2022/09/12 08:42:48;;;;;;;1.38;1.10;;;16.30;99.90;;;;;;5111501;28;20043;-46
2022/09/12 08:45:21;;;;;;;0.95;0.88;;;16.20;99.90;;;;;;5110934;28;20066;-46
2022/09/12 08:47:49;;;;;;;1.83;1.00;;;16.40;99.90;;;;;;5112835;28;20082;-46
2022/09/12 08:50:19;;;;;;;3.13;1.10;;;16.40;99.90;;;;;;5107718;28;20118;-47
2022/09/12 08:53:07;;;;;;;2.17;1.10;;;16.60;99.90;;;;;;5112524;28;20044;-47
2022/09/12 08:55:42;;;;;;;2.53;0.90;;;16.60;99.90;;;;;;5100971;28;20071;-46
2022/09/12 08:58:22;;;;;;;3.60;0.90;;;16.60;99.90;;;;;;5105813;28;20456;-46
2022/09/12 09:01:07;;;;;;;2.03;0.90;;;16.60;99.90;;;;;;5108674;28;20122;-47
2022/09/12 09:03:56;;;;;;;2.15;1.20;;;16.60;99.90;;;;;;5102618;28;20031;-47
2022/09/12 09:06:46;;;;;;;5.25;0.80;;;16.80;99.90;;;;;;5107564;28;20071;-48
2022/09/12 09:09:21;;;;;;;1.30;0.90;;;17.00;99.90;;;;;;5109910;28;20118;-47
2022/09/12 09:12:27;;;;;;;2.33;1.00;;;17.10;99.90;;;;;;5108208;28;20063;-46
2022/09/12 09:15:21;;;;;;;0.95;0.85;;;17.30;99.90;;;;;;5056432;28;20072;-47
2022/09/12 09:17:51;;;;;;;3.22;0.95;;;17.30;99.90;;;;;;5079142;28;20448;-46
2022/09/12 09:20:43;;;;;;;0.80;0.80;;;17.30;99.90;;;;;;5089504;28;20078;-47
2022/09/12 09:23:37;;;;;;;1.85;1.10;;;17.30;99.90;;;;;;5089676;28;20046;-46
2022/09/12 09:26:25;;;;;;;1.67;0.88;;;17.50;99.90;;;;;;5111693;28;20071;-47
2022/09/12 09:28:58;;;;;;;1.63;1.15;;;17.70;99.90;;;;;;5111022;28;20055;-46
2022/09/12 09:31:31;;;;;;;4.07;1.10;;;17.70;99.90;;;;;;5101600;28;20072;-46
2022/09/12 09:33:59;;;;;;;3.08;1.10;;;17.70;99.90;;;;;;5082473;28;20037;-47
2022/09/12 09:36:52;;;;;;;5.18;1.27;;;17.70;99.90;;;;;;5091810;28;20063;-46
2022/09/12 09:39:26;;;;;;;2.63;1.10;;;17.60;99.90;;;;;;5088385;28;20467;-46
2022/09/12 09:42:01;;;;;;;5.50;1.20;;;17.70;99.90;;;;;;5098531;28;20063;-47
2022/09/12 09:44:29;;;;;;;1.85;1.02;;;17.80;99.90;;;;;;5109405;28;20123;-47
2022/09/12 09:46:58;;;;;;;4.20;1.10;;;17.90;99.90;;;;;;5111018;28;20233;-46
2022/09/12 09:49:30;;;;;;;2.55;0.90;;;18.00;99.90;;;;;;5111647;28;20571;-46
2022/09/12 09:51:59;;;;;;;1.10;0.85;;;17.90;99.90;;;;;;5105845;28;20035;-46
2022/09/12 09:54:39;;;;;;;1.17;1.08;;;17.80;99.90;;;;;;5110348;28;20067;-46
2022/09/12 09:57:34;;;;;;;0.85;0.70;;;17.80;99.90;;;;;;5110732;28;20071;-47
2022/09/12 10:00:27;;;;;;;1.30;0.80;;;18.00;99.90;;;;;;5093482;28;20126;-46
2022/09/12 10:03:01;;;;;;;1.88;1.20;;;18.20;99.90;;;;;;5111372;28;20122;-47
2022/09/12 10:05:30;;;;;;;2.67;1.02;;;18.40;99.90;;;;;;5110917;28;20070;-46
2022/09/12 10:07:57;;;;;;;1.85;1.20;;;18.30;99.90;;;;;;5106093;28;20064;-46
2022/09/12 10:10:24;;;;;;;1.30;1.05;;;18.40;99.90;;;;;;5109992;28;20079;-48
2022/09/12 10:13:16;;;;;;;1.17;1.05;;;18.60;99.90;;;;;;5111248;28;20043;-46
2022/09/12 10:16:00;;;;;;;2.13;0.90;;;18.60;99.90;;;;;;5108106;28;20123;-46
2022/09/12 10:18:36;;;;;;;1.10;1.00;;;18.60;99.90;;;;;;5114551;28;20067;-47
2022/09/12 10:21:33;;;;;;;2.30;1.00;;;18.70;99.90;;;;;;5111136;28;20081;-47
2022/09/12 10:24:20;;;;;;;4.05;0.90;;;18.70;99.90;;;;;;5113740;28;20097;-46
2022/09/12 10:26:55;;;;;;;1.38;1.10;;;18.80;99.90;;;;;;5113939;28;20063;-46
2022/09/12 10:29:32;;;;;;;1.10;1.10;;;18.60;99.90;;;;;;5100174;28;20087;-48
2022/09/12 10:32:03;;;;;;;1.05;0.80;;;18.60;99.90;;;;;;5115227;28;20449;-47
2022/09/12 10:34:36;;;;;;;2.20;1.17;;;18.70;99.90;;;;;;5113589;28;20052;-47
2022/09/12 10:37:37;;;;;;;0.93;0.80;;;18.80;99.90;;;;;;5115327;28;20492;-46
2022/09/12 10:40:06;;;;;;;3.30;0.93;;;18.90;99.90;;;;;;5100302;28;20119;-47
2022/09/12 10:42:49;;;;;;;1.15;0.80;;;18.90;99.90;;;;;;5080634;28;20404;-48
2022/09/12 10:45:36;;;;;;;6.15;1.17;;;19.00;99.90;;;;;;5113417;28;20040;-46
2022/09/12 10:48:30;;;;;;;1.70;0.95;;;19.10;99.90;;;;;;5088225;28;20064;-47
2022/09/12 10:50:59;;;;;;;2.22;0.88;;;19.20;99.90;;;;;;5069842;28;20059;-48
2022/09/12 10:53:38;;;;;;;2.05;1.00;;;19.20;99.90;;;;;;5093456;28;20063;-46
2022/09/12 10:56:13;;;;;;;2.13;0.95;;;19.10;99.90;;;;;;5092847;28;20463;-46
2022/09/12 10:58:58;;;;;;;4.43;1.30;;;19.10;99.90;;;;;;5093745;28;20056;-48
2022/09/12 11:01:25;;;;;;;3.60;0.90;;;19.10;99.90;;;;;;5102942;28;20078;-48
2022/09/12 11:04:20;;;;;;;1.35;1.05;;;19.10;99.90;;;;;;5114386;28;20097;-46
2022/09/12 11:07:13;;;;;;;2.35;0.90;;;19.20;99.90;;;;;;5078969;28;20143;-47
2022/09/12 11:09:49;;;;;;;1.50;1.20;;;19.40;99.90;;;;;;5099582;28;20064;-46
2022/09/12 11:12:40;;;;;;;1.85;0.95;;;19.70;99.90;;;;;;5084192;28;20115;-49
2022/09/12 11:15:16;;;;;;;1.40;1.00;;;19.70;99.90;;;;;;5106880;28;20050;-48
2022/09/12 11:17:55;;;;;;;1.52;0.80;;;19.70;99.90;;;;;;5113351;28;20468;-47
2022/09/12 11:20:56;;;;;;;1.33;1.10;;;19.80;99.90;;;;;;5114020;28;20090;-47
2022/09/12 11:23:48;;;;;;;1.80;0.93;;;19.90;99.90;;;;;;5103527;28;20067;-49
2022/09/12 11:26:27;;;;;;;5.45;1.00;;;19.90;99.90;;;;;;5094366;28;20457;-47
2022/09/12 11:29:18;;;;;;;0.98;0.80;;;20.00;99.90;;;;;;5093249;28;20071;-50
2022/09/12 11:31:51;;;;;;;2.90;0.90;;;20.10;99.90;;;;;;5081627;28;20064;-46
2022/09/12 11:34:44;;;;;;;1.95;0.90;;;20.20;99.90;;;;;;5074258;28;20079;-48
2022/09/12 11:37:44;;;;;;;1.30;0.80;;;20.30;99.90;;;;;;5110046;28;20097;-47
2022/09/12 11:40:20;;;;;;;1.70;0.68;;;20.40;99.90;;;;;;5093064;28;20118;-46
2022/09/12 11:42:50;;;;;;;0.80;0.80;;;20.50;99.90;;;;;;5113409;28;20035;-49
2022/09/12 11:45:24;;;;;;;0.80;0.80;;;20.60;99.90;;;;;;5112133;28;20475;-47
2022/09/12 11:47:54;;;;;;;0.90;0.82;;;20.70;99.90;;;;;;5113921;28;20127;-48
2022/09/12 11:50:27;;;;;;;0.68;0.68;;;20.70;99.90;;;;;;5092678;28;20559;-47
2022/09/12 11:53:01;;;;;;;1.30;0.90;;;20.70;99.90;;;;;;5087892;28;20136;-47
2022/09/12 11:55:36;;;;;;;0.70;0.70;;;20.80;99.90;;;;;;5074142;28;20118;-47
2022/09/12 11:58:03;;;;;;;1.52;0.90;;;20.70;99.90;;;;;;5092642;28;20068;-46
2022/09/12 12:00:41;;;;;;;3.92;0.80;;;20.70;99.90;;;;;;5079130;28;20075;-49
2022/09/12 12:03:14;;;;;;;;;;;20.60;99.90;;;;;;5093434;28;20068;-47
2022/09/12 12:05:57;;;;;;;0.85;0.85;;;20.60;99.90;;;;;;5092184;28;20291;-47
2022/09/12 12:08:28;;;;;;;0.85;0.70;;;20.60;99.90;;;;;;5094351;28;20335;-47
2022/09/12 12:11:02;;;;;;;0.50;0.50;;;20.50;99.90;;;;;;5113280;28;20122;-46
2022/09/12 12:13:38;;;;;;;0.70;0.65;;;20.60;99.90;;;;;;5112496;28;20090;-47
2022/09/12 12:16:13;;;;;;;2.50;0.73;;;20.60;99.90;;;;;;5110524;28;20130;-50
2022/09/12 12:18:42;;;;;;;1.38;0.57;;;20.70;99.90;;;;;;5080722;28;20045;-46
2022/09/12 12:21:30;;;;;;;0.80;0.60;;;20.60;99.90;;;;;;5072430;28;20045;-46
2022/09/12 12:24:06;;;;;;;1.50;0.80;;;20.80;99.90;;;;;;5075224;28;20091;-50
2022/09/12 12:26:39;;;;;;;2.78;1.00;;;20.90;99.90;;;;;;5104641;28;20465;-46
2022/09/12 12:29:10;;;;;;;1.00;0.85;;;20.90;99.90;;;;;;5111970;28;20550;-47
2022/09/12 12:32:02;;;;;;;1.23;0.65;;;21.00;99.90;;;;;;5112936;28;20123;-47
2022/09/12 12:34:47;;;;;;;2.22;0.95;;;21.10;99.90;;;;;;5063876;28;20053;-47
2022/09/12 12:37:28;;;;;;;1.90;1.00;;;21.10;99.90;;;;;;5089299;28;20079;-46
2022/09/12 12:40:06;;;;;;;1.60;1.10;;;21.20;99.90;;;;;;5112438;28;20075;-47
2022/09/12 12:42:33;;;;;;;3.00;1.27;;;21.30;99.90;;;;;;5102088;28;20040;-47
2022/09/12 12:45:26;;;;;;;4.70;1.23;;;21.40;99.90;;;;;;5103641;28;20036;-49
2022/09/12 12:48:07;;;;;;;1.52;1.10;;;21.40;99.90;;;;;;5096795;28;20059;-47
2022/09/12 12:50:34;;;;;;;2.65;1.30;;;21.40;99.90;;;;;;5112206;28;20126;-47
2022/09/12 12:53:15;;;;;;;2.78;1.05;;;21.50;99.90;;;;;;5111765;28;20071;-48
2022/09/12 12:55:41;;;;;;;2.08;1.15;;;21.60;99.90;;;;;;5096441;28;20123;-46
2022/09/12 12:58:30;;;;;;;4.15;1.30;;;21.60;99.90;;;;;;5105699;28;20063;-48
2022/09/12 13:01:19;;;;;;;2.50;1.13;;;21.60;99.90;;;;;;5111815;28;20547;-46
2022/09/12 13:03:52;;;;;;;4.50;1.10;;;21.50;99.90;;;;;;5111791;28;20464;-47
2022/09/12 13:06:38;;;;;;;1.20;1.10;;;21.40;99.90;;;;;;5081996;28;20079;-48
2022/09/12 13:09:25;;;;;;;5.20;1.50;;;21.40;99.90;;;;;;5072305;28;20075;-48
2022/09/12 13:12:00;;;;;;;1.45;1.17;;;21.40;99.90;;;;;;5073469;28;20131;-46
2022/09/12 13:14:46;;;;;;;5.60;1.30;;;21.50;99.90;;;;;;5091078;28;20075;-47
2022/09/12 13:17:36;;;;;;;1.27;1.17;;;21.60;99.90;;;;;;5090887;28;20074;-50
2022/09/12 13:20:12;;;;;;;1.38;1.20;;;21.70;99.90;;;;;;5065279;28;20072;-48
2022/09/12 13:22:56;;;;;;;6.55;1.50;;;21.60;99.90;;;;;;5106571;28;20044;-49
2022/09/12 13:25:29;;;;;;;2.00;1.17;;;21.70;99.90;;;;;;5103527;28;20123;-49
2022/09/12 13:28:06;;;;;;;1.30;1.10;;;21.80;99.90;;;;;;5110345;28;20117;-46
2022/09/12 13:30:36;;;;;;;1.35;1.25;;;21.80;99.90;;;;;;5103796;28;20039;-46